Time;durP1;ratioP1;P1;durP2;ratioP2;P2;SDS_P1;SDS_P2;PMS_P1;PMS_P2;Temp;Humidity;BMP_temperature;BMP_pressure;BME280_temperature;BME280_humidity;BME280_pressure;Samples;Min_cycle;Max_cycle;Signal;HPM_P1;HPM_P2
2021/01/06 00:00:16;;;;;;;;;;;;;;;21.51;27.45;98036.28;5141073;28;946;-77
2021/01/06 00:02:41;;;;;;;;;;;;;;;21.07;27.99;98038.53;5140658;28;834;-77
2021/01/06 00:05:08;;;;;;;;;;;;;;;20.99;28.39;98043.56;5140738;28;2012;-77
2021/01/06 00:07:33;;;;;;;;;;;;;;;21.48;27.81;98056.97;5140898;28;667;-76
2021/01/06 00:09:59;;;;;;;;;;;;;;;21.94;27.33;98050.09;5140921;28;744;-76
2021/01/06 00:12:24;;;;;;;;;;;;;;;22.39;26.24;98056.97;5141254;28;693;-76
2021/01/06 00:14:50;;;;;;;;;;;;;;;22.61;26.13;98060.78;5140486;28;914;-77
2021/01/06 00:17:15;;;;;;;;;;;;;;;22.78;25.72;98055.81;5140638;28;873;-76
2021/01/06 00:19:41;;;;;;;;;;;;;;;22.12;26.47;98058.09;5140791;28;846;-77
2021/01/06 00:22:06;;;;;;;;;;;;;;;21.53;27.58;98059.25;5140721;28;1005;-77
2021/01/06 00:24:31;;;;;;;;;;;;;;;21.39;27.94;98053.94;5140982;28;733;-77
2021/01/06 00:26:57;;;;;;;;;;;;;;;21.71;27.51;98053.94;5140860;28;1909;-77
2021/01/06 00:29:23;;;;;;;;;;;;;;;22.03;26.93;98055.13;5122668;28;776;-76
2021/01/06 00:31:48;;;;;;;;;;;;;;;22.58;26.10;98053.16;5125786;27;876;-77
2021/01/06 00:34:13;;;;;;;;;;;;;;;22.63;26.15;98049.75;5144402;27;910;-76
2021/01/06 00:36:39;;;;;;;;;;;;;;;22.80;25.61;98044.81;5144762;27;903;-77
2021/01/06 00:39:05;;;;;;;;;;;;;;;21.85;26.99;98042.22;5145039;27;594;-76
2021/01/06 00:41:32;;;;;;;;;;;;;;;21.40;27.67;98055.53;5144478;27;660;-77
2021/01/06 00:43:57;;;;;;;;;;;;;;;21.26;27.84;98056.66;5144528;27;665;-77
2021/01/06 00:46:26;;;;;;;;;;;;;;;21.55;27.45;98057.59;5144251;27;1902;-77
2021/01/06 00:48:52;;;;;;;;;;;;;;;22.13;26.87;98056.91;5126459;27;1052;-76
2021/01/06 00:51:17;;;;;;;;;;;;;;;22.47;26.33;98052.69;5126887;27;1128;-76
2021/01/06 00:53:43;;;;;;;;;;;;;;;20.62;26.03;97766.94;5144367;27;601;-76
2021/01/06 00:56:08;;;;;;;;;;;;;;;21.99;26.56;98055.22;5144486;27;677;-76
2021/01/06 00:58:36;;;;;;;;;;;;;;;21.47;27.66;98061.03;5144226;27;688;-77
2021/01/06 01:01:04;;;;;;;;;;;;;;;21.11;28.11;98059.03;5144199;27;672;-77
2021/01/06 01:03:37;;;;;;;;;;;;;;;21.65;27.48;98057.72;5125818;27;1270;-76
2021/01/06 01:06:04;;;;;;;;;;;;;;;22.13;26.80;98053.25;5126261;27;1987;-76
2021/01/06 01:08:30;;;;;;;;;;;;;;;22.40;26.17;98055.72;5144005;27;931;-76
2021/01/06 01:10:55;;;;;;;;;;;;;;;22.81;25.29;98050.03;5144004;27;741;-77
2021/01/06 01:13:21;;;;;;;;;;;;;;;22.43;25.64;98055.59;5143987;27;726;-77
2021/01/06 01:15:48;;;;;;;;;;;;;;;21.51;26.99;98061.75;5144067;27;630;-76
2021/01/06 01:18:14;;;;;;;;;;;;;;;21.50;27.32;98060.13;5126077;27;991;-77
2021/01/06 01:20:43;;;;;;;;;;;;;;;21.58;27.72;98050.22;5143606;27;862;-76
2021/01/06 01:23:09;;;;;;;;;;;;;;;22.43;26.08;98054.81;5143715;27;971;-77
2021/01/06 01:25:34;;;;;;;;;;;;;;;22.72;25.47;98052.72;5143652;27;1977;-77
2021/01/06 01:28:00;;;;;;;;;;;;;;;22.85;25.42;98045.03;5143727;27;638;-76
2021/01/06 01:30:26;;;;;;;;;;;;;;;21.74;26.87;98052.25;5143829;27;686;-76
2021/01/06 01:32:51;;;;;;;;;;;;;;;20.60;28.47;98044.44;5143203;27;867;-77
2021/01/06 01:35:18;;;;;;;;;;;;;;;21.21;27.69;98049.50;5143272;27;816;-76
2021/01/06 01:37:44;;;;;;;;;;;;;;;21.84;26.98;98048.34;5143590;27;923;-77
2021/01/06 01:40:10;;;;;;;;;;;;;;;22.36;26.19;98048.13;5143418;27;709;-76
2021/01/06 01:42:36;;;;;;;;;;;;;;;22.74;25.34;98050.25;5142401;27;677;-77
2021/01/06 01:45:03;;;;;;;;;;;;;;;22.86;25.19;98046.63;5143103;27;1026;-76
2021/01/06 01:47:33;;;;;;;;;;;;;;;21.74;27.10;98047.38;5125325;27;955;-77
2021/01/06 01:49:59;;;;;;;;;;;;;;;21.65;27.15;98055.69;5125473;27;902;-77
2021/01/06 01:52:26;;;;;;;;;;;;;;;21.08;28.04;98052.22;5143309;27;708;-77
2021/01/06 01:54:52;;;;;;;;;;;;;;;21.92;26.91;98048.94;5125549;27;737;-76
2021/01/06 01:57:18;;;;;;;;;;;;;;;22.51;26.04;98053.38;5125354;27;701;-76
2021/01/06 01:59:45;;;;;;;;;;;;;;;22.64;25.81;98051.38;5125171;27;968;-76
2021/01/06 02:02:12;;;;;;;;;;;;;;;22.74;25.36;98055.09;5125085;27;949;-76
2021/01/06 02:04:40;;;;;;;;;;;;;;;21.81;26.62;98052.03;5125555;27;923;-76
2021/01/06 02:07:13;;;;;;;;;;;;;;;21.45;27.03;98055.81;5125098;27;1894;-77
2021/01/06 02:09:39;;;;;;;;;;;;;;;21.25;27.79;98046.59;5125169;27;740;-76
2021/01/06 02:12:18;;;;;;;;;;;;;;;22.05;26.97;98039.25;5143025;27;678;-76
2021/01/06 02:14:46;;;;;;;;;;;;;;;22.32;26.24;98041.75;5142459;27;925;-77
2021/01/06 02:17:12;;;;;;;;;;;;;;;22.73;25.45;98047.84;5124849;27;892;-76
2021/01/06 02:19:38;;;;;;;;;;;;;;;22.90;25.33;98045.72;5142537;27;1014;-77
2021/01/06 02:22:04;;;;;;;;;;;;;;;23.11;24.89;98053.59;5142677;27;657;-77
2021/01/06 02:24:29;;;;;;;;;;;;;;;21.97;26.15;98056.91;5124774;27;1205;-76
2021/01/06 02:26:55;;;;;;;;;;;;;;;21.65;27.14;98058.53;5142483;27;1905;-77
2021/01/06 02:29:21;;;;;;;;;;;;;;;20.74;28.16;98061.09;5142091;27;879;-76
2021/01/06 02:31:47;;;;;;;;;;;;;;;21.32;27.65;98095.34;5124576;27;903;-77
2021/01/06 02:34:12;;;;;;;;;;;;;;;21.59;27.33;98068.81;5142648;27;836;-76
2021/01/06 02:36:38;;;;;;;;;;;;;;;21.17;28.25;98077.06;5142738;27;598;-77
2021/01/06 02:39:07;;;;;;;;;;;;;;;22.23;26.38;98081.31;5124494;27;634;-76
2021/01/06 02:41:32;;;;;;;;;;;;;;;22.56;25.54;98075.50;5124730;27;998;-76
2021/01/06 02:43:58;;;;;;;;;;;;;;;22.80;25.65;98088.16;5123980;27;863;-77
2021/01/06 02:46:23;;;;;;;;;;;;;;;22.47;25.76;98086.69;5142046;27;1905;-76
2021/01/06 02:48:49;;;;;;;;;;;;;;;21.85;26.82;98081.06;5124362;27;646;-77
2021/01/06 02:51:19;;;;;;;;;;;;;;;21.07;28.04;98084.56;5124294;27;644;-76
2021/01/06 02:53:52;;;;;;;;;;;;;;;21.52;27.21;98088.81;5123933;27;730;-76
2021/01/06 02:56:17;;;;;;;;;;;;;;;22.16;26.37;98086.34;5142038;27;598;-76
2021/01/06 02:58:43;;;;;;;;;;;;;;;22.53;25.93;98084.91;5123853;27;968;-76
2021/01/06 03:01:11;;;;;;;;;;;;;;;22.70;25.66;98083.59;5123741;27;937;-76
2021/01/06 03:03:39;;;;;;;;;;;;;;;22.19;26.12;98088.31;5141684;27;1023;-77
2021/01/06 03:06:06;;;;;;;;;;;;;;;20.87;28.12;98081.00;5124317;27;1977;-77
2021/01/06 03:08:32;;;;;;;;;;;;;;;21.13;27.74;98087.69;5141811;27;658;-77
2021/01/06 03:10:58;;;;;;;;;;;;;;;21.52;27.62;98083.16;5141718;27;646;-76
2021/01/06 03:13:23;;;;;;;;;;;;;;;22.29;26.26;98090.84;5141541;27;874;-77
2021/01/06 03:15:49;;;;;;;;;;;;;;;22.63;25.80;98083.78;5141624;27;852;-77
2021/01/06 03:18:14;;;;;;;;;;;;;;;22.70;25.68;98086.44;5141401;27;946;-76
2021/01/06 03:20:43;;;;;;;;;;;;;;;21.85;26.33;98092.41;5141486;27;681;-77
2021/01/06 03:23:14;;;;;;;;;;;;;;;21.56;26.81;98103.69;5123499;27;1112;-77
2021/01/06 03:25:41;;;;;;;;;;;;;;;21.41;27.33;98105.28;5123659;27;1992;-77
2021/01/06 03:28:07;;;;;;;;;;;;;;;21.56;27.58;98110.13;5123876;27;642;-77
2021/01/06 03:30:32;;;;;;;;;;;;;;;22.29;26.11;98102.19;5123355;27;804;-77
2021/01/06 03:33:09;;;;;;;;;;;;;;;22.46;25.92;98107.81;5123275;28;962;-77
2021/01/06 03:35:48;;;;;;;;;;;;;;;22.74;25.38;98121.16;5123308;27;877;-76
2021/01/06 03:38:32;;;;;;;;;;;;;;;22.05;26.32;98120.63;5123543;27;710;-76
2021/01/06 03:40:58;;;;;;;;;;;;;;;21.41;27.17;98114.56;5141320;27;674;-77
2021/01/06 03:43:24;;;;;;;;;;;;;;;21.13;27.89;98120.84;5141144;27;602;-77
2021/01/06 03:45:51;;;;;;;;;;;;;;;21.92;26.79;98125.44;5123551;28;1910;-77
2021/01/06 03:48:19;;;;;;;;;;;;;;;22.27;26.11;98118.81;5123051;27;944;-77
2021/01/06 03:50:45;;;;;;;;;;;;;;;22.68;25.54;98114.44;5140842;27;878;-77
2021/01/06 03:53:29;;;;;;;;;;;;;;;22.64;25.81;98119.44;5123401;28;970;-77
2021/01/06 03:55:55;;;;;;;;;;;;;;;21.85;26.84;98127.19;5141063;27;630;-76
2021/01/06 03:58:40;;;;;;;;;;;;;;;21.10;27.83;98128.19;5123373;28;602;-77
2021/01/06 04:01:05;;;;;;;;;;;;;;;21.54;27.55;98137.28;5140756;28;886;-77
2021/01/06 04:03:49;;;;;;;;;;;;;;;22.01;26.76;98134.88;5140679;28;895;-77
2021/01/06 04:06:18;;;;;;;;;;;;;;;22.33;26.36;98128.41;5143321;27;1902;-77
2021/01/06 04:08:45;;;;;;;;;;;;;;;22.47;25.80;98132.06;5127442;27;722;-76
2021/01/06 04:11:11;;;;;;;;;;;;;;;22.71;25.52;98133.41;5127703;27;690;-77
2021/01/06 04:13:37;;;;;;;;;;;;;;;22.04;26.29;98134.00;5145120;27;662;-76
2021/01/06 04:16:02;;;;;;;;;;;;;;;21.13;27.92;98140.66;5144841;27;979;-76
2021/01/06 04:18:28;;;;;;;;;;;;;;;20.73;28.63;98138.69;5144813;27;862;-76
2021/01/06 04:20:53;;;;;;;;;;;;;;;21.90;27.22;98140.03;5144972;27;1019;-77
2021/01/06 04:23:19;;;;;;;;;;;;;;;21.97;26.83;98139.06;5145053;27;1105;-79
2021/01/06 04:25:47;;;;;;;;;;;;;;;22.45;25.75;98134.56;5144966;27;1909;-76
2021/01/06 04:28:16;;;;;;;;;;;;;;;21.79;27.08;98139.50;5145063;27;653;-76
2021/01/06 04:30:47;;;;;;;;;;;;;;;20.54;28.78;98134.63;5144532;27;795;-75
2021/01/06 04:33:14;;;;;;;;;;;;;;;21.44;27.81;98136.31;5144375;27;960;-75
2021/01/06 04:35:40;;;;;;;;;;;;;;;22.12;26.40;98134.63;5144706;27;874;-76
2021/01/06 04:38:06;;;;;;;;;;;;;;;22.41;26.36;98139.53;5144646;27;595;-76
2021/01/06 04:40:32;;;;;;;;;;;;;;;22.76;25.46;98138.53;5144530;27;705;-75
2021/01/06 04:42:59;;;;;;;;;;;;;;;22.12;26.27;98133.84;5127031;27;1281;-76
2021/01/06 04:45:25;;;;;;;;;;;;;;;21.28;27.44;98139.88;5126263;27;1901;-76
2021/01/06 04:48:03;;;;;;;;;;;;;;;21.44;26.97;98135.50;5126655;27;990;-76
2021/01/06 04:50:47;;;;;;;;;;;;;;;21.73;27.31;98141.28;5126672;27;983;-75
2021/01/06 04:53:12;;;;;;;;;;;;;;;22.28;26.24;98131.78;5144490;27;939;-76
2021/01/06 04:55:53;;;;;;;;;;;;;;;22.63;25.63;98134.84;5144591;27;590;-76
2021/01/06 04:58:37;;;;;;;;;;;;;;;22.63;25.70;98129.16;5144217;27;663;-76
2021/01/06 05:01:21;;;;;;;;;;;;;;;22.07;25.87;98078.47;5144038;27;862;-75
2021/01/06 05:04:05;;;;;;;;;;;;;;;21.74;26.85;98137.22;5143999;27;938;-76
2021/01/06 05:06:49;;;;;;;;;;;;;;;21.35;27.35;98138.16;5126265;27;1898;-76
2021/01/06 05:09:25;;;;;;;;;;;;;;;22.10;26.67;98131.41;5143893;27;694;-75
2021/01/06 05:12:10;;;;;;;;;;;;;;;22.48;25.93;98137.28;5126182;27;632;-76
2021/01/06 05:14:56;;;;;;;;;;;;;;;22.58;25.71;98138.22;5102190;27;1003;-76
2021/01/06 05:17:22;;;;;;;;;;;;;;;22.07;26.25;98132.31;5125844;27;926;-76
2021/01/06 05:19:48;;;;;;;;;;;;;;;21.44;27.13;98141.97;5143510;27;877;-75
2021/01/06 05:22:13;;;;;;;;;;;;;;;20.77;28.48;98130.91;5126262;27;1018;-76
2021/01/06 05:24:40;;;;;;;;;;;;;;;21.57;27.26;98136.41;5144062;27;657;-76
2021/01/06 05:27:14;;;;;;;;;;;;;;;22.15;26.31;98128.06;5143563;27;1901;-76
2021/01/06 05:29:44;;;;;;;;;;;;;;;22.47;26.12;98137.75;5142425;27;907;-75
2021/01/06 05:32:29;;;;;;;;;;;;;;;22.66;25.85;98136.78;5141442;27;1113;-74
2021/01/06 05:34:58;;;;;;;;;;;;;;;22.16;26.18;98146.66;5139056;27;1107;-76
2021/01/06 05:37:24;;;;;;;;;;;;;;;21.42;27.57;98138.00;5143252;27;830;-76
2021/01/06 05:39:50;;;;;;;;;;;;;;;20.32;29.41;98135.44;5143332;27;823;-76
2021/01/06 05:42:25;;;;;;;;;;;;;;;21.59;27.71;98136.75;5125618;27;649;-76
2021/01/06 05:45:00;;;;;;;;;;;;;;;22.23;26.19;98135.16;5143177;27;614;-76
2021/01/06 05:47:32;;;;;;;;;;;;;;;22.53;26.18;98130.28;5143227;27;1897;-76
2021/01/06 05:50:00;;;;;;;;;;;;;;;22.93;25.25;98130.75;5125136;27;989;-76
2021/01/06 05:52:26;;;;;;;;;;;;;;;21.78;26.89;98121.72;5140973;27;1180;-75
2021/01/06 05:54:52;;;;;;;;;;;;;;;21.52;27.07;98109.44;5111415;27;1157;-76
2021/01/06 05:57:23;;;;;;;;;;;;;;;20.77;29.01;98116.75;5143051;27;611;-75
2021/01/06 05:59:48;;;;;;;;;;;;;;;22.12;26.77;98117.63;5139166;27;1142;-76
2021/01/06 06:02:22;;;;;;;;;;;;;;;22.44;25.95;98122.44;5122554;28;620;-76
2021/01/06 06:05:12;;;;;;;;;;;;;;;22.75;25.52;98124.81;5104486;28;824;-75
2021/01/06 06:07:57;;;;;;;;;;;;;;;21.90;26.79;98122.25;5121907;28;869;-75
2021/01/06 06:10:42;;;;;;;;;;;;;;;21.32;27.49;98134.97;5122232;28;646;-75
2021/01/06 06:13:20;;;;;;;;;;;;;;;21.00;28.12;98134.88;5039951;28;998;-75
2021/01/06 06:16:09;;;;;;;;;;;;;;;21.74;26.99;98138.00;5098051;28;896;-76
2021/01/06 06:18:34;;;;;;;;;;;;;;;22.31;26.12;98142.22;5110899;28;1190;-75
2021/01/06 06:21:00;;;;;;;;;;;;;;;22.57;25.92;98148.78;5121960;28;816;-76
2021/01/06 06:23:44;;;;;;;;;;;;;;;22.66;25.69;98153.81;5121730;28;967;-75
2021/01/06 06:26:25;;;;;;;;;;;;;;;21.77;26.96;98154.13;5122280;28;1906;-76
2021/01/06 06:29:10;;;;;;;;;;;;;;;21.06;27.95;98162.22;5121228;28;729;-76
2021/01/06 06:31:35;;;;;;;;;;;;;;;21.30;27.94;98154.44;5121522;28;980;-75
2021/01/06 06:34:01;;;;;;;;;;;;;;;21.59;27.40;98159.41;5121336;28;847;-75
2021/01/06 06:36:29;;;;;;;;;;;;;;;22.25;26.23;98160.22;5121898;28;614;-76
2021/01/06 06:38:54;;;;;;;;;;;;;;;22.62;25.57;98164.44;5103989;28;666;-75
2021/01/06 06:41:22;;;;;;;;;;;;;;;22.66;25.63;98155.84;5103195;28;859;-75
2021/01/06 06:43:49;;;;;;;;;;;;;;;21.61;27.18;98165.44;5121649;28;650;-75
2021/01/06 06:46:33;;;;;;;;;;;;;;;21.13;28.10;98172.56;5121476;28;1905;-75
2021/01/06 06:49:10;;;;;;;;;;;;;;;20.84;28.28;98172.41;5121195;28;813;-75
2021/01/06 06:51:44;;;;;;;;;;;;;;;21.24;27.85;98178.81;5121819;28;658;-76
2021/01/06 06:54:10;;;;;;;;;;;;;;;21.70;27.49;98191.09;5103888;28;662;-76
2021/01/06 06:56:46;;;;;;;;;;;;;;;22.43;26.23;98205.09;5121598;28;658;-76
2021/01/06 06:59:14;;;;;;;;;;;;;;;22.77;25.53;98196.84;5121225;28;637;-75
2021/01/06 07:01:44;;;;;;;;;;;;;;;22.69;25.40;98195.47;5103360;28;981;-76
2021/01/06 07:04:16;;;;;;;;;;;;;;;21.88;26.79;98198.38;5103291;28;949;-76
2021/01/06 07:06:48;;;;;;;;;;;;;;;20.86;28.33;98201.03;5121075;28;1986;-76
2021/01/06 07:09:14;;;;;;;;;;;;;;;21.26;27.89;98193.31;5103517;28;655;-75
2021/01/06 07:11:42;;;;;;;;;;;;;;;21.80;27.22;98192.88;5103840;28;708;-75
2021/01/06 07:14:37;;;;;;;;;;;;;;;22.46;26.05;98192.84;5121301;28;680;-76
2021/01/06 07:17:07;;;;;;;;;;;;;;;22.71;25.51;98190.13;5048585;28;960;-76
2021/01/06 07:19:32;;;;;;;;;;;;;;;22.14;26.25;98193.72;5103064;28;939;-76
2021/01/06 07:22:11;;;;;;;;;;;;;;;21.83;26.76;98200.50;5120881;28;664;-75
2021/01/06 07:24:37;;;;;;;;;;;;;;;21.56;27.21;98200.75;5103257;28;674;-75
2021/01/06 07:27:02;;;;;;;;;;;;;;;21.62;27.25;98203.84;5120716;28;1974;-76
2021/01/06 07:29:33;;;;;;;;;;;;;;;22.26;26.47;98202.28;5120470;28;967;-76
2021/01/06 07:32:02;;;;;;;;;;;;;;;22.51;26.05;98198.78;5120636;28;794;-76
2021/01/06 07:34:29;;;;;;;;;;;;;;;22.43;26.11;98205.88;5103232;28;1103;-75
2021/01/06 07:36:55;;;;;;;;;;;;;;;22.75;25.53;98193.66;5102989;28;674;-76
2021/01/06 07:39:26;;;;;;;;;;;;;;;21.62;27.11;98194.56;5120354;28;654;-76
2021/01/06 07:41:51;;;;;;;;;;;;;;;21.49;27.61;98211.41;5102594;28;613;-76
2021/01/06 07:44:16;;;;;;;;;;;;;;;21.24;27.88;98195.78;5120189;28;1021;-76
2021/01/06 07:47:02;;;;;;;;;;;;;;;21.50;27.34;98201.69;5120194;28;1977;-75
2021/01/06 07:49:40;;;;;;;;;;;;;;;21.63;27.31;98204.66;5102862;28;756;-76
2021/01/06 07:52:24;;;;;;;;;;;;;;;22.42;26.17;98214.84;5120555;28;670;-76
2021/01/06 07:54:54;;;;;;;;;;;;;;;22.20;26.45;98209.72;5120527;28;638;-76
2021/01/06 07:57:38;;;;;;;;;;;;;;;22.71;25.57;98200.69;5103001;28;681;-75
2021/01/06 08:00:10;;;;;;;;;;;;;;;22.36;25.96;98194.75;5120430;28;912;-76
2021/01/06 08:02:47;;;;;;;;;;;;;;;21.16;28.01;98187.88;5120164;28;881;-76
2021/01/06 08:05:19;;;;;;;;;;;;;;;20.66;29.12;98201.00;5103999;28;658;-76
2021/01/06 08:07:48;;;;;;;;;;;;;;;21.35;27.96;98189.91;5102837;28;610;-76
2021/01/06 08:10:14;;;;;;;;;;;;;;;21.90;26.98;98199.53;5120826;28;659;-76
2021/01/06 08:12:41;;;;;;;;;;;;;;;22.33;26.51;98201.31;5120088;28;847;-76
2021/01/06 08:15:06;;;;;;;;;;;;;;;22.61;25.70;98194.06;5102230;28;860;-76
2021/01/06 08:17:39;;;;;;;;;;;;;;;22.69;25.74;98201.16;5120295;28;852;-76
2021/01/06 08:20:07;;;;;;;;;;;;;;;22.40;25.91;98211.66;5102525;28;665;-76
2021/01/06 08:22:42;;;;;;;;;;;;;;;21.56;27.33;98205.63;5102646;28;1124;-76
2021/01/06 08:25:16;;;;;;;;;;;;;;;21.25;28.11;98214.34;5102638;28;677;-76
2021/01/06 08:27:42;;;;;;;;;;;;;;;21.58;27.39;98208.78;5102415;28;1925;-76
2021/01/06 08:30:27;;;;;;;;;;;;;;;21.48;27.69;98204.97;5102253;28;932;-76
2021/01/06 08:33:07;;;;;;;;;;;;;;;21.27;28.21;98200.56;5119572;28;1000;-75
2021/01/06 08:35:36;;;;;;;;;;;;;;;22.09;26.53;98203.50;5101812;28;917;-76
2021/01/06 08:38:02;;;;;;;;;;;;;;;22.27;26.23;98203.88;5120001;28;682;-75
2021/01/06 08:40:29;;;;;;;;;;;;;;;22.64;25.80;98198.84;5120074;28;702;-76
2021/01/06 08:42:54;;;;;;;;;;;;;;;22.80;25.52;98198.78;5119623;28;861;-75
2021/01/06 08:45:20;;;;;;;;;;;;;;;20.37;26.78;97934.31;5119773;28;1955;-75
2021/01/06 08:47:45;;;;;;;;;;;;;;;21.19;27.86;98190.63;5120218;28;1011;-75
2021/01/06 08:50:12;;;;;;;;;;;;;;;21.59;27.56;98199.06;5119814;28;629;-76
2021/01/06 08:52:37;;;;;;;;;;;;;;;21.60;27.63;98192.16;5104993;28;583;-76
2021/01/06 08:55:21;;;;;;;;;;;;;;;21.99;27.02;98204.56;5106084;28;607;-76
2021/01/06 08:57:55;;;;;;;;;;;;;;;22.49;26.25;98191.97;5123385;28;875;-75
2021/01/06 09:00:21;;;;;;;;;;;;;;;22.67;25.48;98192.28;5105861;28;902;-75
2021/01/06 09:02:47;;;;;;;;;;;;;;;22.93;25.41;98183.88;5123615;28;618;-76
2021/01/06 09:05:51;;;;;;;;;;;;;;;22.35;26.22;98187.47;5106251;28;678;-75
2021/01/06 09:08:17;;;;;;;;;;;;;;;21.72;27.07;98185.00;5041392;28;1209;-75
2021/01/06 09:10:51;;;;;;;;;;;;;;;21.03;28.19;98185.69;5041478;28;622;-75
2021/01/06 09:13:17;;;;;;;;;;;;;;;21.89;27.14;98188.63;5066798;28;917;-75
2021/01/06 09:15:43;;;;;;;;;;;;;;;22.69;25.89;98177.63;5105742;28;824;-76
2021/01/06 09:18:35;;;;;;;;;;;;;;;22.74;25.59;98175.06;5123208;28;881;-75
2021/01/06 09:21:03;;;;;;;;;;;;;;;21.92;26.79;98167.94;5119311;28;1331;-75
2021/01/06 09:23:29;;;;;;;;;;;;;;;21.43;27.41;98168.69;5123094;28;1117;-75
2021/01/06 09:25:54;;;;;;;;;;;;;;;21.06;27.91;98178.38;5105473;28;1910;-75
2021/01/06 09:28:20;;;;;;;;;;;;;;;21.35;27.46;98174.94;5105054;28;944;-75
2021/01/06 09:30:45;;;;;;;;;;;;;;;21.43;27.82;98173.56;5105199;28;828;-76
2021/01/06 09:33:12;;;;;;;;;;;;;;;22.28;26.62;98165.00;5105229;28;958;-76
2021/01/06 09:35:38;;;;;;;;;;;;;;;22.40;26.27;98169.13;5105328;28;578;-75
2021/01/06 09:38:03;;;;;;;;;;;;;;;22.59;26.32;98168.19;5122996;28;645;-76
2021/01/06 09:40:30;;;;;;;;;;;;;;;22.26;26.67;98156.94;5122868;28;658;-76
2021/01/06 09:42:58;;;;;;;;;;;;;;;21.38;27.72;98168.41;5105002;28;1059;-76
2021/01/06 09:45:24;;;;;;;;;;;;;;;20.96;28.82;98163.22;5104859;28;1909;-76
2021/01/06 09:47:50;;;;;;;;;;;;;;;21.21;28.23;98162.69;5105369;28;784;-76
2021/01/06 09:50:19;;;;;;;;;;;;;;;22.16;26.91;98143.84;5122598;28;709;-75
2021/01/06 09:52:45;;;;;;;;;;;;;;;22.31;26.53;98147.88;5104967;28;693;-76
2021/01/06 09:55:15;;;;;;;;;;;;;;;22.56;26.30;98149.25;5105005;28;710;-76
2021/01/06 09:57:40;;;;;;;;;;;;;;;22.42;26.22;98158.94;5104750;28;1092;-76
2021/01/06 10:00:26;;;;;;;;;;;;;;;21.30;28.13;98160.09;5104775;28;935;-76
2021/01/06 10:02:52;;;;;;;;;;;;;;;21.30;27.86;98151.59;5121206;28;1029;-75
2021/01/06 10:05:17;;;;;;;;;;;;;;;21.21;28.07;98159.88;5104617;28;695;-76
2021/01/06 10:07:48;;;;;;;;;;;;;;;21.41;27.90;98147.72;5122602;28;1898;-76
2021/01/06 10:10:14;;;;;;;;;;;;;;;21.73;27.78;98139.25;5110094;27;1245;-75
2021/01/06 10:12:42;;;;;;;;;;;;;;;22.32;26.70;98145.84;5130707;27;1209;-75
2021/01/06 10:15:10;;;;;;;;;;;;;;;22.59;26.25;98137.00;5111359;27;1240;-75
2021/01/06 10:17:38;;;;;;;;;;;;;;;22.68;26.33;98137.13;5122606;27;1130;-76
2021/01/06 10:20:14;;;;;;;;;;;;;;;21.50;27.64;98130.91;5110999;28;1177;-75
2021/01/06 10:22:40;;;;;;;;;;;;;;;20.80;29.08;98120.75;5107062;27;1212;-76
2021/01/06 10:25:10;;;;;;;;;;;;;;;21.50;27.61;98128.06;5139034;27;1034;-75
2021/01/06 10:27:39;;;;;;;;;;;;;;;20.99;28.69;98131.25;5112256;28;1976;-75
2021/01/06 10:30:09;;;;;;;;;;;;;;;22.10;27.06;98125.75;5109663;28;1241;-75
2021/01/06 10:32:34;;;;;;;;;;;;;;;22.23;26.82;98118.16;5138142;27;1185;-76
2021/01/06 10:35:09;;;;;;;;;;;;;;;22.46;26.60;98113.47;5141957;27;842;-76
2021/01/06 10:37:35;;;;;;;;;;;;;;;22.62;26.42;98111.34;5142123;27;1220;-76
2021/01/06 10:40:24;;;;;;;;;;;;;;;22.26;26.33;98105.91;5124353;27;1278;-76
2021/01/06 10:42:51;;;;;;;;;;;;;;;21.49;27.89;98109.50;5136383;27;1193;-75
2021/01/06 10:45:25;;;;;;;;;;;;;;;21.02;28.31;98104.09;5133433;27;1168;-75
2021/01/06 10:47:51;;;;;;;;;;;;;;;21.52;27.76;98112.25;5130269;27;1296;-75
2021/01/06 10:50:23;;;;;;;;;;;;;;;21.83;27.91;98094.91;5136245;27;1259;-75
2021/01/06 10:52:48;;;;;;;;;;;;;;;22.49;26.45;98092.75;5124666;27;1193;-75
2021/01/06 10:55:37;;;;;;;;;;;;;;;22.69;26.15;98092.53;5121392;28;897;-76
2021/01/06 10:58:08;;;;;;;;;;;;;;;22.52;26.60;98097.50;5124099;27;1170;-75
2021/01/06 11:00:52;;;;;;;;;;;;;;;21.49;27.89;98092.50;5132267;27;1392;-75
2021/01/06 11:03:36;;;;;;;;;;;;;;;20.93;28.54;98089.75;5130589;27;1300;-75
2021/01/06 11:06:11;;;;;;;;;;;;;;;21.30;28.36;98092.16;5135983;27;1893;-76
2021/01/06 11:08:52;;;;;;;;;;;;;;;21.65;28.11;98089.69;5123721;27;947;-76
2021/01/06 11:11:23;;;;;;;;;;;;;;;22.22;27.09;98082.53;5141321;27;951;-76
2021/01/06 11:13:49;;;;;;;;;;;;;;;22.42;26.47;98078.75;5141626;27;693;-76
2021/01/06 11:16:21;;;;;;;;;;;;;;;22.84;26.15;98060.44;5141477;27;578;-76
2021/01/06 11:18:47;;;;;;;;;;;;;;;22.79;26.11;98069.53;5118225;27;1054;-76
2021/01/06 11:21:13;;;;;;;;;;;;;;;22.05;27.08;98061.13;5141562;27;677;-76
2021/01/06 11:23:44;;;;;;;;;;;;;;;21.72;27.86;98066.84;5141005;27;1181;-76
2021/01/06 11:26:31;;;;;;;;;;;;;;;21.04;28.58;98065.66;5141026;27;1901;-76
2021/01/06 11:28:59;;;;;;;;;;;;;;;21.46;28.07;98071.56;5141365;27;610;-76
2021/01/06 11:31:26;;;;;;;;;;;;;;;21.62;27.82;98069.97;5141366;27;648;-76
2021/01/06 11:33:56;;;;;;;;;;;;;;;21.67;28.03;98064.56;5141261;27;651;-76
2021/01/06 11:36:26;;;;;;;;;;;;;;;21.46;28.35;98048.13;5141353;27;621;-76
2021/01/06 11:38:53;;;;;;;;;;;;;;;22.08;27.16;98046.88;5123199;27;1060;-76
2021/01/06 11:41:38;;;;;;;;;;;;;;;22.38;26.59;98044.03;5140859;27;841;-76
2021/01/06 11:44:07;;;;;;;;;;;;;;;22.63;26.48;98044.09;5141117;27;2003;-76
2021/01/06 11:46:40;;;;;;;;;;;;;;;22.83;26.17;98041.84;5141009;27;1893;-75
2021/01/06 11:49:12;;;;;;;;;;;;;;;21.43;28.20;98049.78;5123232;27;670;-75
2021/01/06 11:51:41;;;;;;;;;;;;;;;21.29;28.65;98050.91;5140780;27;1005;-76
2021/01/06 11:54:16;;;;;;;;;;;;;;;21.14;28.74;98049.69;5122873;28;1432;-76
2021/01/06 11:56:44;;;;;;;;;;;;;;;21.17;28.83;98040.28;5141052;27;598;-75
2021/01/06 11:59:13;;;;;;;;;;;;;;;21.71;28.23;98019.97;5123323;27;669;-76
2021/01/06 12:01:57;;;;;;;;;;;;;;;22.29;27.26;98027.69;5140920;27;725;-76
2021/01/06 12:04:41;;;;;;;;;;;;;;;22.68;26.26;98035.03;5141003;28;626;-76
2021/01/06 12:07:25;;;;;;;;;;;;;;;22.37;26.65;98031.91;5140502;28;1975;-76
2021/01/06 12:09:57;;;;;;;;;;;;;;;21.68;27.90;98023.66;5140482;28;959;-76
2021/01/06 12:12:30;;;;;;;;;;;;;;;21.56;28.11;98027.25;5140904;28;636;-75
2021/01/06 12:15:01;;;;;;;;;;;;;;;21.55;27.92;98031.28;5123303;28;706;-76
2021/01/06 12:17:50;;;;;;;;;;;;;;;22.01;27.45;98032.88;5140760;28;629;-76
2021/01/06 12:20:19;;;;;;;;;;;;;;;22.23;27.20;98026.66;5129822;28;1427;-75
2021/01/06 12:22:45;;;;;;;;;;;;;;;22.64;26.32;98034.34;5140308;28;960;-76
2021/01/06 12:25:26;;;;;;;;;;;;;;;22.29;27.06;98031.31;5131193;28;1109;-76
2021/01/06 12:28:04;;;;;;;;;;;;;;;21.39;29.02;98037.75;5134705;27;1142;-74
2021/01/06 12:30:32;;;;;;;;;;;;;;;21.62;29.54;98033.94;5135106;27;1276;-74
2021/01/06 12:33:33;;;;;;;;;;;;;;;21.92;28.78;98035.59;5115455;27;1177;-75
2021/01/06 12:36:10;;;;;;;;;;;;;;;22.23;28.65;98038.78;5052097;28;1386;-74
2021/01/06 12:38:35;;;;;;;;;;;;;;;22.01;28.96;98037.75;5124950;27;1353;-75
2021/01/06 12:41:01;;;;;;;;;;;;;;;21.94;29.12;98033.09;5133742;27;1220;-74
2021/01/06 12:43:29;;;;;;;;;;;;;;;21.70;29.30;98035.34;5133863;27;1186;-74
2021/01/06 12:46:00;;;;;;;;;;;;;;;21.65;29.77;98033.03;5114875;27;1914;-73
2021/01/06 12:48:26;;;;;;;;;;;;;;;21.46;29.93;98031.16;5116020;27;1209;-72
2021/01/06 12:51:03;;;;;;;;;;;;;;;21.71;29.38;98025.63;5134806;27;1633;-75
2021/01/06 12:53:29;;;;;;;;;;;;;;;21.63;29.71;98024.22;5116563;27;1201;-74
2021/01/06 12:56:04;;;;;;;;;;;;;;;22.04;29.03;98028.38;5114310;27;1245;-75
2021/01/06 12:58:32;;;;;;;;;;;;;;;22.03;29.32;98029.63;5132263;27;1232;-76
2021/01/06 13:01:01;;;;;;;;;;;;;;;21.68;29.70;98037.84;5132784;27;1090;-73
2021/01/06 13:03:26;;;;;;;;;;;;;;;22.01;29.22;98041.38;5115407;27;1146;-74
2021/01/06 13:05:53;;;;;;;;;;;;;;;22.07;28.77;98041.63;5134559;27;1909;-76
2021/01/06 13:08:24;;;;;;;;;;;;;;;22.07;29.21;98038.78;5115100;27;1178;-75
2021/01/06 13:10:49;;;;;;;;;;;;;;;22.39;29.44;98037.13;5126301;27;837;-74
2021/01/06 13:13:24;;;;;;;;;;;;;;;21.93;29.77;98036.38;5143744;27;810;-71
2021/01/06 13:15:57;;;;;;;;;;;;;;;21.94;29.54;98033.09;5143750;27;891;-72
2021/01/06 13:18:43;;;;;;;;;;;;;;;21.88;29.56;98034.09;5125579;27;857;-72
2021/01/06 13:21:20;;;;;;;;;;;;;;;21.81;29.48;98023.72;5143878;27;702;-74